sensor_id;sensor_type;location;lat;lon;timestamp;temperature;humidity
12971;DHT22;6550;48.650;8.774;2024-01-30T00:02:02;7.00;99.90
12971;DHT22;6550;48.650;8.774;2024-01-30T00:04:29;7.20;99.90
12971;DHT22;6550;48.650;8.774;2024-01-30T00:06:56;7.30;99.90
12971;DHT22;6550;48.650;8.774;2024-01-30T00:09:22;7.60;99.90
12971;DHT22;6550;48.650;8.774;2024-01-30T00:11:51;7.80;99.90
12971;DHT22;6550;48.650;8.774;2024-01-30T00:14:18;8.20;99.90
12971;DHT22;6550;48.650;8.774;2024-01-30T00:16:47;7.70;99.90
12971;DHT22;6550;48.650;8.774;2024-01-30T00:19:14;8.60;99.90
12971;DHT22;6550;48.650;8.774;2024-01-30T00:21:41;7.30;99.90
12971;DHT22;6550;48.650;8.774;2024-01-30T00:24:08;7.50;99.90
12971;DHT22;6550;48.650;8.774;2024-01-30T00:26:35;7.20;99.90
12971;DHT22;6550;48.650;8.774;2024-01-30T00:29:03;7.20;99.90
12971;DHT22;6550;48.650;8.774;2024-01-30T00:31:32;7.30;99.90
12971;DHT22;6550;48.650;8.774;2024-01-30T00:33:59;7.30;99.90
12971;DHT22;6550;48.650;8.774;2024-01-30T00:36:29;7.10;99.90
12971;DHT22;6550;48.650;8.774;2024-01-30T00:38:58;7.10;99.90
12971;DHT22;6550;48.650;8.774;2024-01-30T00:41:24;7.10;99.90
12971;DHT22;6550;48.650;8.774;2024-01-30T00:43:51;7.80;99.90
12971;DHT22;6550;48.650;8.774;2024-01-30T00:46:18;7.10;99.90
12971;DHT22;6550;48.650;8.774;2024-01-30T00:48:45;7.10;99.90
12971;DHT22;6550;48.650;8.774;2024-01-30T00:51:14;6.90;99.90
12971;DHT22;6550;48.650;8.774;2024-01-30T00:53:41;7.00;99.90
12971;DHT22;6550;48.650;8.774;2024-01-30T00:56:10;7.00;99.90
12971;DHT22;6550;48.650;8.774;2024-01-30T00:58:40;7.20;99.90
12971;DHT22;6550;48.650;8.774;2024-01-30T01:01:07;6.90;99.90
12971;DHT22;6550;48.650;8.774;2024-01-30T01:03:34;7.10;99.90
12971;DHT22;6550;48.650;8.774;2024-01-30T01:06:01;8.50;99.90
12971;DHT22;6550;48.650;8.774;2024-01-30T01:08:27;7.10;99.90
12971;DHT22;6550;48.650;8.774;2024-01-30T01:10:57;7.00;99.90
12971;DHT22;6550;48.650;8.774;2024-01-30T01:13:26;6.90;99.90
12971;DHT22;6550;48.650;8.774;2024-01-30T01:15:53;7.00;99.90
12971;DHT22;6550;48.650;8.774;2024-01-30T01:18:19;7.00;99.90
12971;DHT22;6550;48.650;8.774;2024-01-30T01:20:46;7.00;99.90
12971;DHT22;6550;48.650;8.774;2024-01-30T01:23:13;6.90;99.90
12971;DHT22;6550;48.650;8.774;2024-01-30T01:25:40;6.70;99.90
12971;DHT22;6550;48.650;8.774;2024-01-30T01:28:06;6.80;99.90
12971;DHT22;6550;48.650;8.774;2024-01-30T01:30:33;6.70;99.90
12971;DHT22;6550;48.650;8.774;2024-01-30T01:33:03;7.10;99.90
12971;DHT22;6550;48.650;8.774;2024-01-30T01:35:32;6.70;99.90
12971;DHT22;6550;48.650;8.774;2024-01-30T01:37:59;6.80;99.90
12971;DHT22;6550;48.650;8.774;2024-01-30T01:40:27;7.00;99.90
12971;DHT22;6550;48.650;8.774;2024-01-30T01:42:56;6.70;99.90
12971;DHT22;6550;48.650;8.774;2024-01-30T01:45:23;6.90;99.90
12971;DHT22;6550;48.650;8.774;2024-01-30T01:47:51;6.70;99.90
12971;DHT22;6550;48.650;8.774;2024-01-30T01:50:20;6.90;99.90
12971;DHT22;6550;48.650;8.774;2024-01-30T01:52:48;6.70;99.90
12971;DHT22;6550;48.650;8.774;2024-01-30T01:55:19;6.70;99.90
12971;DHT22;6550;48.650;8.774;2024-01-30T01:57:48;7.50;99.90
12971;DHT22;6550;48.650;8.774;2024-01-30T02:00:16;6.60;99.90
12971;DHT22;6550;48.650;8.774;2024-01-30T02:02:43;6.60;99.90
12971;DHT22;6550;48.650;8.774;2024-01-30T02:05:14;6.70;99.90
12971;DHT22;6550;48.650;8.774;2024-01-30T02:07:41;6.80;99.90
12971;DHT22;6550;48.650;8.774;2024-01-30T02:10:08;6.80;99.90
12971;DHT22;6550;48.650;8.774;2024-01-30T02:12:36;6.80;99.90
12971;DHT22;6550;48.650;8.774;2024-01-30T02:15:04;6.90;99.90
12971;DHT22;6550;48.650;8.774;2024-01-30T02:17:34;6.80;99.90
12971;DHT22;6550;48.650;8.774;2024-01-30T02:20:01;7.00;99.90
12971;DHT22;6550;48.650;8.774;2024-01-30T02:22:28;6.80;99.90
12971;DHT22;6550;48.650;8.774;2024-01-30T02:24:56;7.80;99.90
12971;DHT22;6550;48.650;8.774;2024-01-30T02:27:22;6.90;99.90
12971;DHT22;6550;48.650;8.774;2024-01-30T02:29:51;7.90;99.90
12971;DHT22;6550;48.650;8.774;2024-01-30T02:32:18;6.70;99.90
12971;DHT22;6550;48.650;8.774;2024-01-30T02:34:45;6.60;99.90
12971;DHT22;6550;48.650;8.774;2024-01-30T02:37:16;6.60;99.90
12971;DHT22;6550;48.650;8.774;2024-01-30T02:42:15;6.90;99.90
12971;DHT22;6550;48.650;8.774;2024-01-30T02:44:42;6.60;99.90
12971;DHT22;6550;48.650;8.774;2024-01-30T02:47:08;6.40;99.90
12971;DHT22;6550;48.650;8.774;2024-01-30T02:49:35;6.60;99.90
12971;DHT22;6550;48.650;8.774;2024-01-30T02:52:05;6.50;99.90
12971;DHT22;6550;48.650;8.774;2024-01-30T02:54:34;6.50;99.90
12971;DHT22;6550;48.650;8.774;2024-01-30T02:57:01;6.40;99.90
12971;DHT22;6550;48.650;8.774;2024-01-30T02:59:30;6.40;99.90
12971;DHT22;6550;48.650;8.774;2024-01-30T03:01:59;6.50;99.90
12971;DHT22;6550;48.650;8.774;2024-01-30T03:04:29;6.60;99.90
12971;DHT22;6550;48.650;8.774;2024-01-30T03:06:57;6.40;99.90
12971;DHT22;6550;48.650;8.774;2024-01-30T03:09:24;6.40;99.90
12971;DHT22;6550;48.650;8.774;2024-01-30T03:11:52;6.40;99.90
12971;DHT22;6550;48.650;8.774;2024-01-30T03:14:21;6.50;99.90
12971;DHT22;6550;48.650;8.774;2024-01-30T03:16:51;6.40;99.90
12971;DHT22;6550;48.650;8.774;2024-01-30T03:19:17;6.60;99.90
12971;DHT22;6550;48.650;8.774;2024-01-30T03:21:47;6.30;99.90
12971;DHT22;6550;48.650;8.774;2024-01-30T03:24:17;6.20;99.90
12971;DHT22;6550;48.650;8.774;2024-01-30T03:26:44;6.70;99.90
12971;DHT22;6550;48.650;8.774;2024-01-30T03:29:10;6.30;99.90
12971;DHT22;6550;48.650;8.774;2024-01-30T03:31:38;6.30;99.90
12971;DHT22;6550;48.650;8.774;2024-01-30T03:34:07;6.40;99.90
12971;DHT22;6550;48.650;8.774;2024-01-30T03:36:36;6.20;99.90
12971;DHT22;6550;48.650;8.774;2024-01-30T03:39:03;6.20;99.90
12971;DHT22;6550;48.650;8.774;2024-01-30T03:41:32;6.20;99.90
12971;DHT22;6550;48.650;8.774;2024-01-30T03:44:02;6.20;99.90
12971;DHT22;6550;48.650;8.774;2024-01-30T03:46:31;5.90;99.90
12971;DHT22;6550;48.650;8.774;2024-01-30T03:48:58;6.20;99.90
12971;DHT22;6550;48.650;8.774;2024-01-30T03:51:25;6.20;99.90
12971;DHT22;6550;48.650;8.774;2024-01-30T03:53:51;6.30;99.90
12971;DHT22;6550;48.650;8.774;2024-01-30T03:56:18;6.10;99.90
12971;DHT22;6550;48.650;8.774;2024-01-30T03:58:47;6.30;99.90
12971;DHT22;6550;48.650;8.774;2024-01-30T04:01:14;6.20;99.90
12971;DHT22;6550;48.650;8.774;2024-01-30T04:03:41;6.20;99.90
12971;DHT22;6550;48.650;8.774;2024-01-30T04:06:13;6.00;99.90
12971;DHT22;6550;48.650;8.774;2024-01-30T04:08:40;6.00;99.90
12971;DHT22;6550;48.650;8.774;2024-01-30T04:11:09;6.20;99.90
12971;DHT22;6550;48.650;8.774;2024-01-30T04:13:35;6.00;99.90
12971;DHT22;6550;48.650;8.774;2024-01-30T04:16:03;6.10;99.90
12971;DHT22;6550;48.650;8.774;2024-01-30T04:18:34;6.10;99.90
12971;DHT22;6550;48.650;8.774;2024-01-30T04:21:04;5.90;99.90
12971;DHT22;6550;48.650;8.774;2024-01-30T04:23:33;6.10;99.90
12971;DHT22;6550;48.650;8.774;2024-01-30T04:26:00;6.40;99.90
12971;DHT22;6550;48.650;8.774;2024-01-30T04:28:26;6.00;99.90
12971;DHT22;6550;48.650;8.774;2024-01-30T04:30:56;6.00;99.90
12971;DHT22;6550;48.650;8.774;2024-01-30T04:33:23;6.10;99.90
12971;DHT22;6550;48.650;8.774;2024-01-30T04:35:52;6.10;99.90
12971;DHT22;6550;48.650;8.774;2024-01-30T04:38:19;6.00;99.90
12971;DHT22;6550;48.650;8.774;2024-01-30T04:40:46;6.00;99.90
12971;DHT22;6550;48.650;8.774;2024-01-30T04:43:15;5.90;99.90
12971;DHT22;6550;48.650;8.774;2024-01-30T04:45:42;6.00;99.90
12971;DHT22;6550;48.650;8.774;2024-01-30T04:48:09;5.90;99.90
12971;DHT22;6550;48.650;8.774;2024-01-30T04:50:38;5.90;99.90
12971;DHT22;6550;48.650;8.774;2024-01-30T04:53:05;5.90;99.90
12971;DHT22;6550;48.650;8.774;2024-01-30T04:55:32;7.00;99.90
12971;DHT22;6550;48.650;8.774;2024-01-30T04:58:01;6.00;99.90
12971;DHT22;6550;48.650;8.774;2024-01-30T05:00:30;6.00;99.90
12971;DHT22;6550;48.650;8.774;2024-01-30T05:02:57;6.10;99.90
12971;DHT22;6550;48.650;8.774;2024-01-30T05:05:24;6.10;99.90
12971;DHT22;6550;48.650;8.774;2024-01-30T05:07:51;6.40;99.90
12971;DHT22;6550;48.650;8.774;2024-01-30T05:10:20;5.90;99.90
12971;DHT22;6550;48.650;8.774;2024-01-30T05:12:47;5.90;99.90
12971;DHT22;6550;48.650;8.774;2024-01-30T05:15:14;5.90;99.90
12971;DHT22;6550;48.650;8.774;2024-01-30T05:17:43;6.40;99.90
12971;DHT22;6550;48.650;8.774;2024-01-30T05:20:12;6.10;99.90
12971;DHT22;6550;48.650;8.774;2024-01-30T05:22:39;6.20;99.90
12971;DHT22;6550;48.650;8.774;2024-01-30T05:25:14;6.10;99.90
12971;DHT22;6550;48.650;8.774;2024-01-30T05:27:41;6.10;99.90
12971;DHT22;6550;48.650;8.774;2024-01-30T05:30:08;6.00;99.90
12971;DHT22;6550;48.650;8.774;2024-01-30T05:32:40;7.20;99.90
12971;DHT22;6550;48.650;8.774;2024-01-30T05:35:07;10.20;99.90
12971;DHT22;6550;48.650;8.774;2024-01-30T05:37:37;10.40;99.90
12971;DHT22;6550;48.650;8.774;2024-01-30T05:40:04;11.20;99.90
12971;DHT22;6550;48.650;8.774;2024-01-30T05:42:31;11.00;99.90
12971;DHT22;6550;48.650;8.774;2024-01-30T05:45:00;11.20;99.90
12971;DHT22;6550;48.650;8.774;2024-01-30T05:47:29;11.20;99.90
12971;DHT22;6550;48.650;8.774;2024-01-30T05:49:56;12.60;99.90
12971;DHT22;6550;48.650;8.774;2024-01-30T05:52:23;11.20;99.90
12971;DHT22;6550;48.650;8.774;2024-01-30T05:54:51;12.40;99.90
12971;DHT22;6550;48.650;8.774;2024-01-30T05:57:18;11.80;99.90
12971;DHT22;6550;48.650;8.774;2024-01-30T05:59:45;12.40;99.90
12971;DHT22;6550;48.650;8.774;2024-01-30T06:02:12;11.70;99.90
12971;DHT22;6550;48.650;8.774;2024-01-30T06:04:39;11.60;99.90
12971;DHT22;6550;48.650;8.774;2024-01-30T06:07:06;11.80;99.90
12971;DHT22;6550;48.650;8.774;2024-01-30T06:09:36;12.30;99.90
12971;DHT22;6550;48.650;8.774;2024-01-30T06:12:05;12.50;99.90
12971;DHT22;6550;48.650;8.774;2024-01-30T06:14:37;11.70;99.90
12971;DHT22;6550;48.650;8.774;2024-01-30T06:17:03;11.90;99.90
12971;DHT22;6550;48.650;8.774;2024-01-30T06:19:31;12.40;99.90
12971;DHT22;6550;48.650;8.774;2024-01-30T06:21:58;12.10;99.90
12971;DHT22;6550;48.650;8.774;2024-01-30T06:24:25;11.90;99.90
12971;DHT22;6550;48.650;8.774;2024-01-30T06:26:52;12.40;99.90
12971;DHT22;6550;48.650;8.774;2024-01-30T06:29:21;12.70;99.90
12971;DHT22;6550;48.650;8.774;2024-01-30T06:31:48;11.80;99.90
12971;DHT22;6550;48.650;8.774;2024-01-30T06:34:17;12.30;99.90
12971;DHT22;6550;48.650;8.774;2024-01-30T06:36:43;13.20;99.90
12971;DHT22;6550;48.650;8.774;2024-01-30T06:39:10;11.90;99.90
12971;DHT22;6550;48.650;8.774;2024-01-30T06:41:37;13.20;99.90
12971;DHT22;6550;48.650;8.774;2024-01-30T06:44:04;12.30;99.90
12971;DHT22;6550;48.650;8.774;2024-01-30T06:46:35;11.90;99.90
12971;DHT22;6550;48.650;8.774;2024-01-30T06:49:02;12.00;99.90
12971;DHT22;6550;48.650;8.774;2024-01-30T06:51:28;12.60;99.90
12971;DHT22;6550;48.650;8.774;2024-01-30T06:53:55;12.10;99.90
12971;DHT22;6550;48.650;8.774;2024-01-30T06:56:24;12.20;99.90
12971;DHT22;6550;48.650;8.774;2024-01-30T06:58:52;12.60;99.90
12971;DHT22;6550;48.650;8.774;2024-01-30T07:01:18;13.50;99.90
12971;DHT22;6550;48.650;8.774;2024-01-30T07:03:46;13.60;99.90
12971;DHT22;6550;48.650;8.774;2024-01-30T07:06:13;13.20;99.90
12971;DHT22;6550;48.650;8.774;2024-01-30T07:08:40;12.30;99.90
12971;DHT22;6550;48.650;8.774;2024-01-30T07:11:06;12.70;99.90
12971;DHT22;6550;48.650;8.774;2024-01-30T07:13:34;12.70;99.90
12971;DHT22;6550;48.650;8.774;2024-01-30T07:16:01;12.20;99.90
12971;DHT22;6550;48.650;8.774;2024-01-30T07:18:28;12.10;99.90
12971;DHT22;6550;48.650;8.774;2024-01-30T07:20:59;12.20;99.90
12971;DHT22;6550;48.650;8.774;2024-01-30T07:23:26;12.10;99.90
12971;DHT22;6550;48.650;8.774;2024-01-30T07:25:56;12.50;99.90
12971;DHT22;6550;48.650;8.774;2024-01-30T07:28:24;12.10;99.90
12971;DHT22;6550;48.650;8.774;2024-01-30T07:30:53;13.60;99.90
12971;DHT22;6550;48.650;8.774;2024-01-30T07:33:20;12.30;99.90
12971;DHT22;6550;48.650;8.774;2024-01-30T07:35:49;12.20;99.90
12971;DHT22;6550;48.650;8.774;2024-01-30T07:38:16;13.30;99.90
12971;DHT22;6550;48.650;8.774;2024-01-30T07:40:42;13.80;99.90
12971;DHT22;6550;48.650;8.774;2024-01-30T07:43:12;12.30;99.90
12971;DHT22;6550;48.650;8.774;2024-01-30T07:45:41;12.30;99.90
12971;DHT22;6550;48.650;8.774;2024-01-30T07:48:08;14.10;99.90
12971;DHT22;6550;48.650;8.774;2024-01-30T07:50:37;12.30;99.90
12971;DHT22;6550;48.650;8.774;2024-01-30T07:53:06;12.50;99.90
12971;DHT22;6550;48.650;8.774;2024-01-30T07:55:33;13.10;99.90
12971;DHT22;6550;48.650;8.774;2024-01-30T07:58:00;12.50;99.90
12971;DHT22;6550;48.650;8.774;2024-01-30T08:00:27;12.70;99.90
12971;DHT22;6550;48.650;8.774;2024-01-30T08:02:56;12.60;99.90
12971;DHT22;6550;48.650;8.774;2024-01-30T08:05:23;13.70;99.90
12971;DHT22;6550;48.650;8.774;2024-01-30T08:07:53;12.80;99.90
12971;DHT22;6550;48.650;8.774;2024-01-30T08:10:22;12.90;99.90
12971;DHT22;6550;48.650;8.774;2024-01-30T08:12:51;13.10;99.90
12971;DHT22;6550;48.650;8.774;2024-01-30T08:15:18;13.40;99.90
12971;DHT22;6550;48.650;8.774;2024-01-30T08:17:45;14.20;99.90
12971;DHT22;6550;48.650;8.774;2024-01-30T08:20:12;12.90;99.90
12971;DHT22;6550;48.650;8.774;2024-01-30T08:22:39;14.00;99.90
12971;DHT22;6550;48.650;8.774;2024-01-30T08:25:08;13.30;99.90
12971;DHT22;6550;48.650;8.774;2024-01-30T08:27:39;13.20;99.90
12971;DHT22;6550;48.650;8.774;2024-01-30T08:30:09;13.80;99.90
12971;DHT22;6550;48.650;8.774;2024-01-30T08:32:38;13.30;99.90
12971;DHT22;6550;48.650;8.774;2024-01-30T08:35:05;13.40;99.80
12971;DHT22;6550;48.650;8.774;2024-01-30T08:37:37;11.70;99.10
12971;DHT22;6550;48.650;8.774;2024-01-30T08:40:07;11.50;99.90
12971;DHT22;6550;48.650;8.774;2024-01-30T08:42:35;10.40;99.90
12971;DHT22;6550;48.650;8.774;2024-01-30T08:45:04;10.20;99.90
12971;DHT22;6550;48.650;8.774;2024-01-30T08:47:31;10.50;99.90
12971;DHT22;6550;48.650;8.774;2024-01-30T08:50:01;12.60;99.90
12971;DHT22;6550;48.650;8.774;2024-01-30T08:52:28;11.50;99.90
12971;DHT22;6550;48.650;8.774;2024-01-30T08:54:54;12.20;99.90
12971;DHT22;6550;48.650;8.774;2024-01-30T08:57:24;11.70;99.90
12971;DHT22;6550;48.650;8.774;2024-01-30T08:59:50;11.40;99.90
12971;DHT22;6550;48.650;8.774;2024-01-30T09:02:17;11.60;99.90
12971;DHT22;6550;48.650;8.774;2024-01-30T09:04:49;12.00;99.90
12971;DHT22;6550;48.650;8.774;2024-01-30T09:07:16;10.70;99.90
12971;DHT22;6550;48.650;8.774;2024-01-30T09:09:43;11.20;99.90
12971;DHT22;6550;48.650;8.774;2024-01-30T09:12:10;11.20;99.90
12971;DHT22;6550;48.650;8.774;2024-01-30T09:14:39;10.90;99.90
12971;DHT22;6550;48.650;8.774;2024-01-30T09:17:07;10.50;99.90
12971;DHT22;6550;48.650;8.774;2024-01-30T09:19:35;11.60;99.90
12971;DHT22;6550;48.650;8.774;2024-01-30T09:22:02;11.30;99.90
12971;DHT22;6550;48.650;8.774;2024-01-30T09:24:31;11.10;99.90
12971;DHT22;6550;48.650;8.774;2024-01-30T09:27:01;12.10;99.90
12971;DHT22;6550;48.650;8.774;2024-01-30T09:29:33;11.60;99.90
12971;DHT22;6550;48.650;8.774;2024-01-30T09:32:04;11.30;99.90
12971;DHT22;6550;48.650;8.774;2024-01-30T09:34:33;10.90;99.90
12971;DHT22;6550;48.650;8.774;2024-01-30T09:37:00;12.50;99.90
12971;DHT22;6550;48.650;8.774;2024-01-30T09:39:27;10.90;99.90
12971;DHT22;6550;48.650;8.774;2024-01-30T09:42:38;12.80;99.90
12971;DHT22;6550;48.650;8.774;2024-01-30T09:45:05;11.10;99.90
12971;DHT22;6550;48.650;8.774;2024-01-30T09:47:42;11.10;99.90
12971;DHT22;6550;48.650;8.774;2024-01-30T09:50:12;10.90;99.90
12971;DHT22;6550;48.650;8.774;2024-01-30T09:52:44;11.00;99.90
12971;DHT22;6550;48.650;8.774;2024-01-30T09:55:11;11.60;99.90
12971;DHT22;6550;48.650;8.774;2024-01-30T09:57:41;11.20;99.90
12971;DHT22;6550;48.650;8.774;2024-01-30T10:00:08;11.90;99.90
12971;DHT22;6550;48.650;8.774;2024-01-30T10:02:36;11.00;99.90
12971;DHT22;6550;48.650;8.774;2024-01-30T10:05:03;10.90;99.90
12971;DHT22;6550;48.650;8.774;2024-01-30T10:07:32;11.20;99.90
12971;DHT22;6550;48.650;8.774;2024-01-30T10:10:00;11.20;99.90
12971;DHT22;6550;48.650;8.774;2024-01-30T10:12:27;11.70;99.90
12971;DHT22;6550;48.650;8.774;2024-01-30T10:14:56;11.00;99.90
12971;DHT22;6550;48.650;8.774;2024-01-30T10:17:25;11.30;99.90
12971;DHT22;6550;48.650;8.774;2024-01-30T10:19:59;12.50;99.90
12971;DHT22;6550;48.650;8.774;2024-01-30T10:22:30;11.30;99.90
12971;DHT22;6550;48.650;8.774;2024-01-30T10:25:00;11.60;99.90
12971;DHT22;6550;48.650;8.774;2024-01-30T10:27:34;11.20;99.90
12971;DHT22;6550;48.650;8.774;2024-01-30T10:30:03;11.70;99.90
12971;DHT22;6550;48.650;8.774;2024-01-30T10:32:33;11.10;99.90
12971;DHT22;6550;48.650;8.774;2024-01-30T10:35:00;12.80;99.90
12971;DHT22;6550;48.650;8.774;2024-01-30T10:37:28;12.00;99.90
12971;DHT22;6550;48.650;8.774;2024-01-30T10:40:02;11.80;99.90
12971;DHT22;6550;48.650;8.774;2024-01-30T10:42:31;13.10;99.90
12971;DHT22;6550;48.650;8.774;2024-01-30T10:47:36;11.90;99.90
12971;DHT22;6550;48.650;8.774;2024-01-30T10:50:06;12.90;99.90
12971;DHT22;6550;48.650;8.774;2024-01-30T10:52:34;11.80;99.90
12971;DHT22;6550;48.650;8.774;2024-01-30T10:55:04;11.90;99.90
12971;DHT22;6550;48.650;8.774;2024-01-30T10:57:37;11.90;99.90
12971;DHT22;6550;48.650;8.774;2024-01-30T11:00:11;13.30;99.90
12971;DHT22;6550;48.650;8.774;2024-01-30T11:02:40;12.20;99.90
12971;DHT22;6550;48.650;8.774;2024-01-30T11:05:08;12.60;99.90
12971;DHT22;6550;48.650;8.774;2024-01-30T11:07:35;12.60;99.90
12971;DHT22;6550;48.650;8.774;2024-01-30T11:10:03;12.90;99.90
12971;DHT22;6550;48.650;8.774;2024-01-30T11:12:37;12.30;99.90
12971;DHT22;6550;48.650;8.774;2024-01-30T11:17:42;12.40;99.90
12971;DHT22;6550;48.650;8.774;2024-01-30T11:20:21;13.10;99.90
12971;DHT22;6550;48.650;8.774;2024-01-30T11:22:55;12.50;99.90
12971;DHT22;6550;48.650;8.774;2024-01-30T11:25:23;14.00;99.90
12971;DHT22;6550;48.650;8.774;2024-01-30T11:27:59;14.80;99.90
12971;DHT22;6550;48.650;8.774;2024-01-30T11:30:32;13.20;99.90
12971;DHT22;6550;48.650;8.774;2024-01-30T11:33:04;12.70;99.90
12971;DHT22;6550;48.650;8.774;2024-01-30T11:35:33;12.60;99.90
12971;DHT22;6550;48.650;8.774;2024-01-30T11:38:01;13.40;99.90
12971;DHT22;6550;48.650;8.774;2024-01-30T11:40:31;12.80;99.90
12971;DHT22;6550;48.650;8.774;2024-01-30T11:43:04;13.10;99.90
12971;DHT22;6550;48.650;8.774;2024-01-30T11:45:34;13.30;99.90
12971;DHT22;6550;48.650;8.774;2024-01-30T11:48:03;13.10;99.90
12971;DHT22;6550;48.650;8.774;2024-01-30T11:50:34;12.90;99.90
12971;DHT22;6550;48.650;8.774;2024-01-30T11:53:01;12.60;99.90
12971;DHT22;6550;48.650;8.774;2024-01-30T11:55:32;13.20;99.90
12971;DHT22;6550;48.650;8.774;2024-01-30T11:58:03;13.10;99.90
12971;DHT22;6550;48.650;8.774;2024-01-30T12:00:33;13.10;99.90
12971;DHT22;6550;48.650;8.774;2024-01-30T12:03:03;13.10;99.90
12971;DHT22;6550;48.650;8.774;2024-01-30T12:05:31;13.20;99.90
12971;DHT22;6550;48.650;8.774;2024-01-30T12:08:01;13.20;99.90
12971;DHT22;6550;48.650;8.774;2024-01-30T12:10:29;14.00;99.90
12971;DHT22;6550;48.650;8.774;2024-01-30T12:12:56;13.70;99.90
12971;DHT22;6550;48.650;8.774;2024-01-30T12:15:26;12.80;99.90
12971;DHT22;6550;48.650;8.774;2024-01-30T12:18:04;12.60;99.90
12971;DHT22;6550;48.650;8.774;2024-01-30T12:20:30;12.60;99.90
12971;DHT22;6550;48.650;8.774;2024-01-30T12:22:57;11.50;99.90
12971;DHT22;6550;48.650;8.774;2024-01-30T12:27:54;11.70;99.90
12971;DHT22;6550;48.650;8.774;2024-01-30T12:30:21;12.00;99.90
12971;DHT22;6550;48.650;8.774;2024-01-30T12:32:52;12.10;99.90
12971;DHT22;6550;48.650;8.774;2024-01-30T12:35:23;11.80;99.90
12971;DHT22;6550;48.650;8.774;2024-01-30T12:37:50;12.10;99.90
12971;DHT22;6550;48.650;8.774;2024-01-30T12:40:17;12.50;99.90
12971;DHT22;6550;48.650;8.774;2024-01-30T12:42:47;12.20;99.90
12971;DHT22;6550;48.650;8.774;2024-01-30T12:45:17;12.00;99.90
12971;DHT22;6550;48.650;8.774;2024-01-30T12:47:52;12.30;99.90
12971;DHT22;6550;48.650;8.774;2024-01-30T12:50:22;12.10;99.90
12971;DHT22;6550;48.650;8.774;2024-01-30T12:52:52;13.50;99.90
12971;DHT22;6550;48.650;8.774;2024-01-30T12:55:22;12.20;99.90
12971;DHT22;6550;48.650;8.774;2024-01-30T13:00:18;11.70;99.90
12971;DHT22;6550;48.650;8.774;2024-01-30T13:02:48;11.80;99.90
12971;DHT22;6550;48.650;8.774;2024-01-30T13:05:17;12.20;99.90
12971;DHT22;6550;48.650;8.774;2024-01-30T13:07:46;11.90;99.90
12971;DHT22;6550;48.650;8.774;2024-01-30T13:10:13;12.20;99.90
12971;DHT22;6550;48.650;8.774;2024-01-30T13:12:40;13.40;99.90
12971;DHT22;6550;48.650;8.774;2024-01-30T13:15:09;12.40;99.90
12971;DHT22;6550;48.650;8.774;2024-01-30T13:17:37;12.00;99.90
12971;DHT22;6550;48.650;8.774;2024-01-30T13:20:05;13.30;99.90
12971;DHT22;6550;48.650;8.774;2024-01-30T13:22:40;12.00;99.90
12971;DHT22;6550;48.650;8.774;2024-01-30T13:25:11;12.40;99.90
12971;DHT22;6550;48.650;8.774;2024-01-30T13:27:46;12.10;99.90
12971;DHT22;6550;48.650;8.774;2024-01-30T13:30:13;13.00;99.90
12971;DHT22;6550;48.650;8.774;2024-01-30T13:32:43;12.20;99.90
12971;DHT22;6550;48.650;8.774;2024-01-30T13:35:11;12.30;99.90
12971;DHT22;6550;48.650;8.774;2024-01-30T13:37:38;12.30;99.90
12971;DHT22;6550;48.650;8.774;2024-01-30T13:40:06;13.60;99.90
12971;DHT22;6550;48.650;8.774;2024-01-30T13:42:39;12.50;99.90
12971;DHT22;6550;48.650;8.774;2024-01-30T13:45:09;12.40;99.90
12971;DHT22;6550;48.650;8.774;2024-01-30T13:47:41;12.60;99.90
12971;DHT22;6550;48.650;8.774;2024-01-30T13:50:10;13.60;99.90
12971;DHT22;6550;48.650;8.774;2024-01-30T13:52:42;12.60;99.90
12971;DHT22;6550;48.650;8.774;2024-01-30T13:55:11;12.70;99.90
12971;DHT22;6550;48.650;8.774;2024-01-30T13:57:39;12.60;99.90
12971;DHT22;6550;48.650;8.774;2024-01-30T14:00:06;12.60;99.90
12971;DHT22;6550;48.650;8.774;2024-01-30T14:02:38;12.90;99.90
12971;DHT22;6550;48.650;8.774;2024-01-30T14:05:10;13.10;99.90
12971;DHT22;6550;48.650;8.774;2024-01-30T14:07:37;13.10;99.90
12971;DHT22;6550;48.650;8.774;2024-01-30T14:10:10;13.30;99.90
12971;DHT22;6550;48.650;8.774;2024-01-30T14:12:44;13.30;99.90
12971;DHT22;6550;48.650;8.774;2024-01-30T14:15:14;13.60;99.90
12971;DHT22;6550;48.650;8.774;2024-01-30T14:17:56;12.90;99.90
12971;DHT22;6550;48.650;8.774;2024-01-30T14:20:25;13.30;99.90
12971;DHT22;6550;48.650;8.774;2024-01-30T14:25:24;13.30;99.90
12971;DHT22;6550;48.650;8.774;2024-01-30T14:27:52;13.80;99.90
12971;DHT22;6550;48.650;8.774;2024-01-30T14:30:19;12.60;99.90
12971;DHT22;6550;48.650;8.774;2024-01-30T14:32:46;12.00;99.90
12971;DHT22;6550;48.650;8.774;2024-01-30T14:35:13;13.60;99.90
12971;DHT22;6550;48.650;8.774;2024-01-30T14:37:43;12.70;99.90
12971;DHT22;6550;48.650;8.774;2024-01-30T14:40:12;13.00;99.90
12971;DHT22;6550;48.650;8.774;2024-01-30T14:42:42;12.90;99.90
12971;DHT22;6550;48.650;8.774;2024-01-30T14:45:09;12.50;99.90
12971;DHT22;6550;48.650;8.774;2024-01-30T14:47:38;12.50;99.90
12971;DHT22;6550;48.650;8.774;2024-01-30T14:50:08;13.30;99.90
12971;DHT22;6550;48.650;8.774;2024-01-30T14:52:38;12.30;99.90
12971;DHT22;6550;48.650;8.774;2024-01-30T14:55:07;12.50;99.90
12971;DHT22;6550;48.650;8.774;2024-01-30T14:57:34;12.80;99.90
12971;DHT22;6550;48.650;8.774;2024-01-30T15:00:02;12.50;99.90
12971;DHT22;6550;48.650;8.774;2024-01-30T15:02:32;12.20;99.90
12971;DHT22;6550;48.650;8.774;2024-01-30T15:05:01;12.10;99.90
12971;DHT22;6550;48.650;8.774;2024-01-30T15:07:28;12.70;99.90
12971;DHT22;6550;48.650;8.774;2024-01-30T15:10:06;12.30;99.90
12971;DHT22;6550;48.650;8.774;2024-01-30T15:12:34;12.00;99.90
12971;DHT22;6550;48.650;8.774;2024-01-30T15:15:04;12.30;99.90
12971;DHT22;6550;48.650;8.774;2024-01-30T15:17:31;11.90;99.90
12971;DHT22;6550;48.650;8.774;2024-01-30T15:19:59;11.80;99.90
12971;DHT22;6550;48.650;8.774;2024-01-30T15:22:27;11.70;99.90
12971;DHT22;6550;48.650;8.774;2024-01-30T15:24:56;11.70;99.90
12971;DHT22;6550;48.650;8.774;2024-01-30T15:27:23;11.50;99.90
12971;DHT22;6550;48.650;8.774;2024-01-30T15:29:52;12.50;99.90
12971;DHT22;6550;48.650;8.774;2024-01-30T15:32:19;11.50;99.90
12971;DHT22;6550;48.650;8.774;2024-01-30T15:34:47;11.50;99.90
12971;DHT22;6550;48.650;8.774;2024-01-30T15:37:14;11.40;99.90
12971;DHT22;6550;48.650;8.774;2024-01-30T15:39:41;11.70;99.90
12971;DHT22;6550;48.650;8.774;2024-01-30T15:42:10;11.40;99.90
12971;DHT22;6550;48.650;8.774;2024-01-30T15:44:37;11.30;99.90
12971;DHT22;6550;48.650;8.774;2024-01-30T15:47:04;11.20;99.90
12971;DHT22;6550;48.650;8.774;2024-01-30T15:49:31;11.10;99.90
12971;DHT22;6550;48.650;8.774;2024-01-30T15:51:58;11.10;99.90
12971;DHT22;6550;48.650;8.774;2024-01-30T15:54:27;10.90;99.90
12971;DHT22;6550;48.650;8.774;2024-01-30T15:56:56;10.90;99.90
12971;DHT22;6550;48.650;8.774;2024-01-30T15:59:25;11.30;99.90
12971;DHT22;6550;48.650;8.774;2024-01-30T16:01:54;11.20;99.90
12971;DHT22;6550;48.650;8.774;2024-01-30T16:04:21;10.70;99.90
12971;DHT22;6550;48.650;8.774;2024-01-30T16:06:51;11.30;99.90
12971;DHT22;6550;48.650;8.774;2024-01-30T16:09:18;10.60;99.90
12971;DHT22;6550;48.650;8.774;2024-01-30T16:11:47;11.10;99.90
12971;DHT22;6550;48.650;8.774;2024-01-30T16:14:16;10.50;99.90
12971;DHT22;6550;48.650;8.774;2024-01-30T16:16:43;11.60;99.90